Time;durP1;ratioP1;P1;durP2;ratioP2;P2;SDS_P1;SDS_P2;PMS_P1;PMS_P2;Temp;Humidity;BMP_temperature;BMP_pressure;BME280_temperature;BME280_humidity;BME280_pressure;Samples;Min_cycle;Max_cycle;Signal;HPM_P1;HPM_P2
2022/08/14 00:00:20;;;;;;;9.85;7.53;;;;;;;23.47;51.29;100307.91;1795469;80;20849;-84
2022/08/14 00:02:46;;;;;;;10.28;7.40;;;;;;;23.46;51.40;100310.27;1795616;79;20920;-83
2022/08/14 00:05:17;;;;;;;11.93;8.43;;;;;;;23.45;51.34;100316.62;1795577;78;21006;-83
2022/08/14 00:07:44;;;;;;;8.25;7.20;;;;;;;23.45;51.61;100307.77;1795662;80;21151;-84
2022/08/14 00:10:15;;;;;;;14.23;8.00;;;;;;;23.45;51.47;100309.11;1795411;80;20874;-83
2022/08/14 00:12:50;;;;;;;10.60;7.47;;;;;;;23.45;51.45;100307.77;1795576;80;20877;-83
2022/08/14 00:15:25;;;;;;;11.43;7.28;;;;;;;23.43;51.53;100315.98;1794370;78;20850;-84
2022/08/14 00:17:52;;;;;;;11.90;7.12;;;;;;;23.43;51.69;100318.66;1795538;78;20869;-84
2022/08/14 00:20:23;;;;;;;7.17;6.47;;;;;;;23.42;51.64;100314.33;1795995;79;21204;-82
2022/08/14 00:22:51;;;;;;;8.85;7.65;;;;;;;23.40;51.68;100308.33;1795349;79;21428;-83
2022/08/14 00:25:17;;;;;;;14.43;7.35;;;;;;;23.39;51.66;100304.00;1795958;80;20917;-83
2022/08/14 00:27:47;;;;;;;15.28;8.48;;;;;;;23.37;51.76;100309.53;1795902;79;21388;-84
2022/08/14 00:30:14;;;;;;;14.70;8.70;;;;;;;23.37;51.84;100302.02;1795732;78;20956;-82
2022/08/14 00:32:41;;;;;;;14.40;7.08;;;;;;;23.38;51.90;100303.66;1814734;78;21114;-83
2022/08/14 00:35:08;;;;;;;8.45;7.37;;;;;;;23.37;51.99;100302.02;1817722;79;20897;-84
2022/08/14 00:37:42;;;;;;;7.35;6.65;;;;;;;23.35;52.04;100298.69;1817888;78;20968;-83
2022/08/14 00:40:11;;;;;;;10.00;7.70;;;;;;;23.35;52.04;100301.37;1818255;78;20937;-84
2022/08/14 00:42:40;;;;;;;14.58;7.28;;;;;;;23.33;52.21;100302.88;1817930;78;21395;-84
2022/08/14 00:45:09;;;;;;;9.63;7.95;;;;;;;23.30;52.11;100300.58;1817765;79;21132;-84
2022/08/14 00:47:35;;;;;;;10.05;7.20;;;;;;;23.27;52.33;100296.09;1817744;79;20846;-84
2022/08/14 00:50:05;;;;;;;10.30;7.10;;;;;;;23.27;52.37;100297.42;1817812;78;21379;-83
2022/08/14 00:52:32;;;;;;;10.08;7.28;;;;;;;23.25;52.54;100296.77;1817908;78;20889;-83
2022/08/14 00:54:59;;;;;;;8.68;7.15;;;;;;;23.25;52.60;100303.47;1817756;78;20917;-84
2022/08/14 00:57:29;;;;;;;10.30;7.37;;;;;;;23.23;52.69;100302.81;1817805;78;21414;-84
2022/08/14 00:59:56;;;;;;;11.28;7.83;;;;;;;23.22;52.83;100299.83;1817827;78;21011;-84
2022/08/14 01:02:23;;;;;;;11.90;6.92;;;;;;;23.20;52.84;100297.33;1817816;78;20882;-85
2022/08/14 01:05:06;;;;;;;11.68;7.62;;;;;;;23.20;52.94;100301.85;1817845;79;20893;-84
2022/08/14 01:07:27;;;;;;;7.65;6.80;;;;;;;23.17;53.13;100301.72;1814661;78;20929;-84
2022/08/14 01:10:00;;;;;;;10.03;7.03;;;;;;;23.18;53.31;100299.35;1817808;78;20937;-83
2022/08/14 01:12:27;;;;;;;10.93;7.40;;;;;;;23.16;53.24;100304.87;1817800;79;20988;-84
2022/08/14 01:14:55;;;;;;;10.20;7.12;;;;;;;23.16;53.38;100306.72;1817740;78;21502;-83
2022/08/14 01:17:22;;;;;;;10.23;7.03;;;;;;;23.15;53.63;100305.91;1817812;79;21402;-84
2022/08/14 01:22:35;;;;;;;7.95;7.17;;;;;;;23.12;53.78;100304.94;1817782;78;21314;-85
2022/08/14 01:25:02;;;;;;;11.45;8.00;;;;;;;23.14;54.65;100303.40;1817836;78;20851;-85
2022/08/14 01:27:29;;;;;;;12.43;8.10;;;;;;;23.13;54.30;100307.92;1817814;79;20908;-82
2022/08/14 01:29:56;;;;;;;8.43;7.72;;;;;;;23.12;53.93;100310.29;1817773;78;20972;-83
2022/08/14 01:32:23;;;;;;;12.03;7.72;;;;;;;23.13;54.11;100306.59;1817736;78;20886;-83
2022/08/14 01:34:54;;;;;;;10.98;7.53;;;;;;;23.15;54.25;100305.91;1817843;78;21698;-83
2022/08/14 01:37:23;;;;;;;9.23;7.58;;;;;;;23.15;54.22;100303.22;1818041;79;20830;-84
2022/08/14 01:39:50;;;;;;;11.80;7.10;;;;;;;23.15;54.08;100296.53;1818131;79;20869;-83
2022/08/14 01:42:18;;;;;;;9.60;7.22;;;;;;;23.16;54.31;100298.70;1817642;78;20929;-82
2022/08/14 01:44:50;;;;;;;11.05;7.42;;;;;;;23.17;54.63;100298.52;1817843;78;21023;-82
2022/08/14 01:47:14;;;;;;;13.72;8.18;;;;;;;23.19;54.42;100299.69;1817602;78;20870;-82
2022/08/14 01:49:41;;;;;;;12.47;7.10;;;;;;;23.20;54.29;100293.31;1817732;78;20909;-82
2022/08/14 01:52:07;;;;;;;11.08;7.72;;;;;;;23.21;54.26;100298.15;1817701;78;20921;-82
2022/08/14 01:54:35;;;;;;;7.92;7.12;;;;;;;23.21;54.09;100292.80;1817791;78;21004;-82
2022/08/14 01:57:02;;;;;;;7.65;6.85;;;;;;;23.21;54.18;100288.78;1818975;78;20838;-82
2022/08/14 01:59:31;;;;;;;9.30;6.75;;;;;;;23.22;54.09;100289.13;1820882;78;21102;-81
2022/08/14 02:02:04;;;;;;;11.53;7.05;;;;;;;23.23;54.17;100285.42;1818203;78;20921;-83
2022/08/14 02:04:33;;;;;;;13.40;7.47;;;;;;;23.24;54.35;100291.11;1817951;78;20920;-82
2022/08/14 02:07:01;;;;;;;16.50;7.10;;;;;;;23.24;54.17;100293.27;1818157;78;20922;-82
2022/08/14 02:09:34;;;;;;;10.48;6.47;;;;;;;23.24;54.16;100297.80;1817835;78;20846;-82
2022/08/14 02:11:57;;;;;;;10.55;6.80;;;;;;;23.24;54.28;100289.77;1817157;78;21130;-82
2022/08/14 02:14:24;;;;;;;10.25;6.85;;;;;;;23.24;54.40;100287.92;1817577;78;20996;-83
2022/08/14 02:16:51;;;;;;;11.85;6.92;;;;;;;23.25;54.49;100292.77;1817715;78;20893;-82
2022/08/14 02:19:21;;;;;;;7.90;6.33;;;;;;;23.24;54.40;100289.27;1817748;78;20913;-82
2022/08/14 02:21:53;;;;;;;9.05;6.58;;;;;;;23.23;54.42;100296.12;1818905;78;20909;-82
2022/08/14 02:24:22;;;;;;;8.88;6.80;;;;;;;23.22;54.44;100287.79;1818267;78;21137;-84
2022/08/14 02:26:50;;;;;;;8.75;7.75;;;;;;;23.20;54.56;100285.28;1817967;78;20900;-84
2022/08/14 02:29:22;;;;;;;11.60;7.17;;;;;;;23.18;54.48;100289.47;1817853;78;20925;-85
2022/08/14 02:31:51;;;;;;;8.03;6.90;;;;;;;23.17;54.54;100289.16;1818263;77;21389;-83
2022/08/14 02:34:22;;;;;;;13.10;7.08;;;;;;;23.15;54.67;100284.50;1820457;78;20919;-81
2022/08/14 02:36:51;;;;;;;8.93;6.67;;;;;;;23.16;54.68;100292.01;1820536;77;21645;-83
2022/08/14 02:39:18;;;;;;;8.50;7.20;;;;;;;23.15;54.73;100291.70;1820372;77;20903;-84
2022/08/14 02:41:47;;;;;;;8.93;7.10;;;;;;;23.12;54.77;100286.21;1820469;78;21456;-82
2022/08/14 02:44:13;;;;;;;10.53;6.42;;;;;;;23.10;54.98;100288.23;1820362;78;20958;-83
2022/08/14 02:46:43;;;;;;;9.68;6.40;;;;;;;23.10;55.00;100291.39;1820351;78;20840;-83
2022/08/14 02:49:10;;;;;;;10.60;7.08;;;;;;;23.07;55.17;100296.61;1820399;78;21250;-83
2022/08/14 02:51:37;;;;;;;10.30;6.70;;;;;;;23.06;55.20;100298.97;1820405;78;20867;-84
2022/08/14 02:54:06;;;;;;;7.40;6.62;;;;;;;23.04;55.35;100293.48;1820687;78;21021;-82
2022/08/14 02:56:37;;;;;;;14.05;7.17;;;;;;;23.03;55.47;100292.62;1820296;78;20903;-84
2022/08/14 02:59:01;;;;;;;8.28;6.00;;;;;;;23.02;55.60;100288.30;1820172;78;21349;-83
2022/08/14 03:01:28;;;;;;;11.20;6.85;;;;;;;23.00;55.75;100292.17;1820379;78;21098;-84
2022/08/14 03:03:55;;;;;;;7.08;6.47;;;;;;;22.97;55.94;100282.13;1820360;78;20908;-84
2022/08/14 03:06:24;;;;;;;10.18;6.55;;;;;;;22.96;56.13;100284.98;1820491;78;21381;-84
2022/08/14 03:08:53;;;;;;;11.38;7.53;;;;;;;22.95;56.28;100283.33;1820518;78;20880;-84
2022/08/14 03:11:21;;;;;;;10.00;7.00;;;;;;;22.92;56.44;100275.17;1820384;78;20951;-83
2022/08/14 03:13:50;;;;;;;10.15;6.83;;;;;;;22.91;56.57;100280.69;1820403;78;21099;-83
2022/08/14 03:16:20;;;;;;;9.43;6.87;;;;;;;22.90;56.73;100282.54;1820318;77;20954;-83
2022/08/14 03:18:48;;;;;;;11.70;7.35;;;;;;;22.90;56.75;100280.34;1820047;78;20888;-83
2022/08/14 03:21:17;;;;;;;10.00;7.65;;;;;;;22.90;56.80;100282.54;1820332;78;20954;-83
2022/08/14 03:23:45;;;;;;;8.05;7.25;;;;;;;22.90;56.91;100279.86;1820452;78;21002;-83
2022/08/14 03:26:16;;;;;;;9.53;6.85;;;;;;;22.92;56.84;100273.83;1820498;78;21018;-84
2022/08/14 03:28:48;;;;;;;11.78;7.62;;;;;;;22.94;56.70;100271.81;1820377;78;20864;-84
2022/08/14 03:31:15;;;;;;;10.58;8.00;;;;;;;22.98;56.70;100269.58;1820326;78;20914;-83
2022/08/14 03:33:42;;;;;;;10.43;7.28;;;;;;;23.02;56.61;100260.22;1820068;78;20880;-83
2022/08/14 03:36:12;;;;;;;12.35;7.15;;;;;;;23.06;56.54;100262.03;1787296;80;20887;-83
2022/08/14 03:38:43;;;;;;;10.00;6.45;;;;;;;23.10;56.58;100263.30;1793947;79;21120;-83
2022/08/14 03:41:15;;;;;;;9.88;7.62;;;;;;;23.12;56.34;100264.81;1791830;79;20821;-83
2022/08/14 03:43:47;;;;;;;10.20;7.10;;;;;;;23.14;56.36;100260.59;1790810;79;20903;-83
2022/08/14 03:46:13;;;;;;;7.63;6.60;;;;;;;23.15;56.29;100260.94;1791196;79;20876;-86
2022/08/14 03:48:40;;;;;;;7.33;6.53;;;;;;;23.16;56.27;100263.92;1791088;79;20958;-84
2022/08/14 03:51:09;;;;;;;14.05;7.60;;;;;;;23.18;56.45;100264.06;1790940;79;21285;-84
2022/08/14 03:53:40;;;;;;;7.72;6.90;;;;;;;23.21;56.61;100261.55;1791006;79;20946;-84
2022/08/14 03:56:12;;;;;;;11.55;7.08;;;;;;;23.23;56.80;100266.18;1819737;77;20938;-84
2022/08/14 03:58:41;;;;;;;9.08;7.55;;;;;;;23.29;56.64;100266.79;1819593;79;20923;-84
2022/08/14 04:01:08;;;;;;;11.70;7.65;;;;;;;23.32;56.70;100257.56;1819846;78;20907;-84
2022/08/14 04:03:36;;;;;;;12.55;8.65;;;;;;;23.38;56.85;100265.69;1819902;77;21234;-84
2022/08/14 04:06:03;;;;;;;9.88;7.95;;;;;;;23.43;56.90;100262.45;1819889;78;20856;-84
2022/08/14 04:08:35;;;;;;;10.72;8.88;;;;;;;23.50;56.96;100267.89;1819876;79;20852;-85
2022/08/14 04:11:03;;;;;;;10.32;8.33;;;;;;;23.57;57.03;100261.63;1791747;79;21457;-84
2022/08/14 04:13:32;;;;;;;10.25;8.03;;;;;;;23.65;56.48;100262.02;1819809;78;20843;-85
2022/08/14 04:15:59;;;;;;;9.60;8.38;;;;;;;23.73;56.03;100261.94;1819824;77;21436;-84
2022/08/14 04:18:25;;;;;;;8.95;8.10;;;;;;;23.79;55.72;100261.22;1819775;79;20876;-86
2022/08/14 04:20:52;;;;;;;20.50;8.98;;;;;;;23.87;55.56;100258.94;1820006;78;20845;-86
2022/08/14 04:23:19;;;;;;;13.78;9.90;;;;;;;23.94;55.28;100253.66;1819769;78;21472;-84
2022/08/14 04:25:46;;;;;;;10.65;9.65;;;;;;;24.02;55.01;100255.41;1819955;77;20962;-85
2022/08/14 04:28:14;;;;;;;13.40;11.00;;;;;;;24.11;54.65;100249.73;1820153;77;21121;-84
2022/08/14 04:30:40;;;;;;;17.30;11.38;;;;;;;24.24;54.28;100249.56;1819919;78;20907;-84
2022/08/14 04:33:07;;;;;;;12.55;11.25;;;;;;;24.38;53.98;100248.14;1820052;77;20911;-81
2022/08/14 04:35:35;;;;;;;11.03;9.93;;;;;;;24.53;53.73;100239.25;1819937;78;21367;-84
2022/08/14 04:43:39;;;;;;;14.63;10.05;;;;;;;25.03;51.87;100255.65;1819737;78;20852;-83
2022/08/14 04:46:13;;;;;;;13.35;9.23;;;;;;;25.16;51.33;100254.06;1819708;77;21416;-85
2022/08/14 04:48:40;;;;;;;15.13;9.85;;;;;;;25.24;50.82;100253.95;1819254;79;28131;-83
2022/08/14 04:51:12;;;;;;;12.58;9.35;;;;;;;25.32;50.21;100259.66;1819638;78;21455;-82
2022/08/14 04:53:42;;;;;;;12.75;9.08;;;;;;;25.39;50.40;100253.81;1819637;78;21273;-84
2022/08/14 04:56:18;;;;;;;10.82;7.70;;;;;;;25.48;50.08;100248.62;1819712;79;20895;-84
2022/08/14 04:58:46;;;;;;;9.90;6.70;;;;;;;25.59;49.41;100248.54;1819707;78;21431;-84
2022/08/14 05:01:14;;;;;;;8.75;7.17;;;;;;;25.75;49.86;100246.87;1819619;77;20852;-82
2022/08/14 05:03:41;;;;;;;8.08;6.33;;;;;;;25.99;49.11;100246.03;1819514;78;20910;-83
2022/08/14 05:06:10;;;;;;;8.95;5.72;;;;;;;26.23;48.07;100244.66;1819703;78;21215;-83
2022/08/14 05:08:37;;;;;;;6.65;5.95;;;;;;;26.41;47.13;100242.71;1819497;79;21435;-84
2022/08/14 05:11:05;;;;;;;5.72;5.10;;;;;;;26.54;46.70;100246.76;1819465;77;20891;-84
2022/08/14 05:13:34;;;;;;;9.33;5.10;;;;;;;26.78;45.51;100249.38;1819807;78;20836;-84
2022/08/14 05:16:01;;;;;;;9.53;5.30;;;;;;;26.95;44.54;100244.94;1819626;77;20839;-83
2022/08/14 05:18:31;;;;;;;7.28;5.25;;;;;;;27.01;44.46;100254.84;1819528;77;21779;-84
2022/08/14 05:20:59;;;;;;;8.80;4.37;;;;;;;27.00;44.00;100243.27;1819857;77;20915;-84
2022/08/14 05:23:28;;;;;;;7.30;5.15;;;;;;;26.97;44.46;100253.61;1819922;79;20872;-84
2022/08/14 05:26:00;;;;;;;6.53;5.40;;;;;;;26.96;44.45;100248.75;1819610;78;20876;-83
2022/08/14 05:28:28;;;;;;;14.78;5.08;;;;;;;26.96;43.80;100249.27;1819677;77;21428;-84
2022/08/14 05:30:57;;;;;;;5.65;4.53;;;;;;;26.95;43.26;100264.60;1819783;77;21264;-83
2022/08/14 05:33:27;;;;;;;8.50;5.55;;;;;;;26.90;43.73;100249.58;1819819;78;20872;-82
2022/08/14 05:36:00;;;;;;;5.78;4.45;;;;;;;26.98;43.39;100261.48;1820147;78;20907;-84
2022/08/14 05:38:32;;;;;;;10.20;4.90;;;;;;;27.07;43.41;100262.09;1819989;78;20923;-84
2022/08/14 05:41:01;;;;;;;7.40;5.03;;;;;;;27.22;42.51;100251.13;1819663;78;20958;-85
2022/08/14 05:43:29;;;;;;;6.17;4.80;;;;;;;27.35;42.20;100252.98;1819687;78;21222;-84
2022/08/14 05:45:57;;;;;;;10.00;4.45;;;;;;;27.45;41.65;100256.03;1819349;78;20955;-84
2022/08/14 05:48:24;;;;;;;12.85;4.55;;;;;;;27.64;41.84;100259.19;1819462;78;21626;-82
2022/08/14 05:50:53;;;;;;;6.65;4.55;;;;;;;27.83;40.79;100259.31;1819759;77;20994;-83
2022/08/14 05:53:23;;;;;;;6.78;4.75;;;;;;;28.01;40.19;100259.97;1820920;78;20832;-83
2022/08/14 05:55:49;;;;;;;5.37;4.87;;;;;;;28.18;39.87;100254.39;1822187;77;21244;-82
2022/08/14 05:58:16;;;;;;;7.12;4.20;;;;;;;28.47;39.96;100257.52;1820224;78;20860;-84
2022/08/14 06:00:43;;;;;;;11.80;4.33;;;;;;;28.86;38.77;100258.28;1820031;77;21437;-82
2022/08/14 06:03:18;;;;;;;8.03;4.08;;;;;;;29.21;38.04;100254.52;1820021;77;20926;-82
2022/08/14 06:05:48;;;;;;;9.33;4.67;;;;;;;29.57;37.88;100246.14;1819734;77;20915;-82
2022/08/14 06:08:27;;;;;;;8.53;4.75;;;;;;;30.00;37.05;100255.19;1819627;78;21847;-83
2022/08/14 06:11:01;;;;;;;9.03;4.35;;;;;;;30.43;36.43;100256.33;1819547;79;21469;-82
2022/08/14 06:13:27;;;;;;;16.90;4.55;;;;;;;30.83;34.69;100255.68;1819422;77;21351;-84
2022/08/14 06:15:54;;;;;;;11.83;4.35;;;;;;;31.10;35.37;100259.30;1819530;77;20939;-83
2022/08/14 06:18:20;;;;;;;7.70;4.75;;;;;;;31.41;34.36;100244.53;1819605;79;21397;-81
2022/08/14 06:20:47;;;;;;;8.98;3.83;;;;;;;31.75;33.72;100250.97;1819670;78;21214;-82
2022/08/14 06:23:13;;;;;;;11.48;5.05;;;;;;;32.05;33.28;100251.81;1819497;77;20863;-83
2022/08/14 06:25:40;;;;;;;9.05;3.90;;;;;;;32.33;33.18;100249.07;1819517;78;20879;-82
2022/08/14 06:28:07;;;;;;;8.50;4.10;;;;;;;32.63;32.63;100250.13;1819733;79;21455;-81
2022/08/14 06:30:33;;;;;;;11.70;6.20;;;;;;;32.80;31.63;100246.05;1819664;78;20856;-82
2022/08/14 06:33:00;;;;;;;10.58;4.72;;;;;;;32.86;32.05;100246.94;1819676;78;21212;-84
2022/08/14 06:35:27;;;;;;;14.58;4.60;;;;;;;32.95;31.75;100241.39;1820194;78;20958;-84
2022/08/14 06:37:57;;;;;;;11.03;4.87;;;;;;;33.12;31.37;100250.06;1820325;78;20864;-83
2022/08/14 06:40:28;;;;;;;13.90;5.15;;;;;;;33.26;30.54;100240.46;1819596;78;20918;-83
2022/08/14 06:42:57;;;;;;;12.55;4.40;;;;;;;33.37;30.02;100239.55;1818939;78;20943;-84
2022/08/14 06:45:24;;;;;;;9.43;4.58;;;;;;;33.50;30.47;100236.15;1819526;78;21127;-83
2022/08/14 06:47:52;;;;;;;11.05;4.58;;;;;;;33.73;29.44;100236.43;1819574;77;20857;-86
2022/08/14 06:50:20;;;;;;;11.28;3.72;;;;;;;33.97;29.38;100234.23;1819636;78;20867;-83
2022/08/14 06:52:47;;;;;;;16.52;4.03;;;;;;;34.06;28.77;100247.15;1819494;77;20954;-81
2022/08/14 06:55:16;;;;;;;6.00;4.72;;;;;;;34.08;28.49;100244.14;1819736;78;20817;-84
2022/08/14 06:57:45;;;;;;;12.53;4.35;;;;;;;34.13;28.48;100240.69;1819466;78;21764;-86
2022/08/14 07:00:22;;;;;;;11.03;4.20;;;;;;;34.18;28.77;100240.20;1819451;77;20856;-84
2022/08/14 07:05:45;;;;;;;17.45;4.45;;;;;;;34.49;28.99;100245.11;1819481;77;20958;-85
2022/08/14 07:08:28;;;;;;;8.50;4.10;;;;;;;34.61;27.95;100245.19;1819570;77;20899;-86
2022/08/14 07:10:58;;;;;;;11.95;4.05;;;;;;;34.61;28.04;100253.35;1819738;78;21809;-86
2022/08/14 07:13:26;;;;;;;9.75;4.17;;;;;;;34.60;27.76;100250.91;1819836;77;21001;-84
2022/08/14 07:15:55;;;;;;;12.07;5.03;;;;;;;34.63;28.24;100270.29;1819767;78;20840;-86
2022/08/14 07:18:24;;;;;;;13.38;4.67;;;;;;;34.67;27.95;100258.34;1819714;78;20927;-86
2022/08/14 07:20:52;;;;;;;11.08;4.53;;;;;;;34.75;28.20;100259.75;1820253;78;20891;-85
2022/08/14 07:23:18;;;;;;;13.10;4.50;;;;;;;34.85;28.14;100254.38;1819686;78;22143;-86
2022/08/14 07:25:47;;;;;;;10.00;4.35;;;;;;;34.84;27.89;100254.93;1819585;78;20875;-84
2022/08/14 07:28:35;;;;;;;18.37;5.12;;;;;;;34.83;28.28;100257.36;1819702;77;20911;-85
2022/08/14 07:31:05;;;;;;;10.93;6.10;;;;;;;34.91;28.68;100257.42;1820482;78;20892;-84
2022/08/14 07:33:39;;;;;;;8.60;4.92;;;;;;;35.03;29.20;100248.48;1821387;78;20860;-84
2022/08/14 07:36:08;;;;;;;7.00;4.15;;;;;;;35.08;27.36;100255.35;1820976;78;21483;-85
2022/08/14 07:38:35;;;;;;;10.03;5.67;;;;;;;34.98;27.72;100256.64;1820323;78;20922;-85
2022/08/14 07:41:04;;;;;;;12.82;6.60;;;;;;;35.02;28.20;100270.58;1820794;78;20874;-85
2022/08/14 07:43:31;;;;;;;13.85;6.47;;;;;;;35.09;28.17;100259.70;1821140;78;20888;-86
2022/08/14 07:48:47;;;;;;;11.57;5.25;;;;;;;35.42;28.58;100259.64;1816851;79;22606;-85
2022/08/14 07:51:13;;;;;;;11.15;6.50;;;;;;;35.46;27.51;100259.36;1789958;79;20939;-85
2022/08/14 07:53:41;;;;;;;10.35;5.78;;;;;;;35.47;28.31;100253.65;1789812;80;21477;-86
2022/08/14 07:56:09;;;;;;;9.58;5.10;;;;;;;35.56;27.84;100260.78;1790041;80;21405;-85
2022/08/14 07:58:37;;;;;;;12.55;7.03;;;;;;;35.60;27.44;100263.25;1789957;80;20935;-86
2022/08/14 08:01:05;;;;;;;10.70;4.35;;;;;;;35.64;27.80;100251.27;1790567;80;21099;-85
2022/08/14 08:03:34;;;;;;;6.37;4.42;;;;;;;35.70;26.13;100256.48;1790825;79;20888;-87
2022/08/14 08:06:01;;;;;;;9.98;5.03;;;;;;;35.74;26.80;100254.05;1789910;80;21156;-85
2022/08/14 08:08:31;;;;;;;7.85;4.72;;;;;;;35.92;26.71;100254.09;1789731;80;21007;-85
2022/08/14 08:10:59;;;;;;;11.80;4.87;;;;;;;36.06;25.66;100254.37;1789936;80;21394;-85
2022/08/14 08:13:25;;;;;;;18.23;5.20;;;;;;;36.07;26.19;100256.84;1784848;79;20907;-85
2022/08/14 08:15:58;;;;;;;10.53;4.85;;;;;;;36.17;26.23;100244.33;1789988;80;21374;-85
2022/08/14 08:18:25;;;;;;;11.05;4.40;;;;;;;36.19;25.75;100257.97;1789886;80;21462;-86
2022/08/14 08:20:53;;;;;;;10.98;4.22;;;;;;;36.03;25.81;100253.56;1789837;80;20939;-84
2022/08/14 08:23:22;;;;;;;5.55;4.53;;;;;;;35.87;25.91;100255.45;1789965;80;20880;-86
2022/08/14 08:25:50;;;;;;;12.88;5.17;;;;;;;35.79;25.89;100252.69;1789852;79;20942;-84
2022/08/14 08:28:26;;;;;;;8.30;5.08;;;;;;;35.65;26.29;100243.38;1790008;80;21464;-85
2022/08/14 08:30:57;;;;;;;13.45;4.08;;;;;;;35.60;26.43;100255.62;1790251;80;21678;-84
2022/08/14 08:33:27;;;;;;;8.08;4.42;;;;;;;35.52;26.54;100249.30;1790857;80;20904;-87
2022/08/14 08:36:00;;;;;;;13.75;4.37;;;;;;;35.66;26.68;100244.48;1790507;80;20928;-84
2022/08/14 08:38:27;;;;;;;12.33;6.05;;;;;;;35.85;26.19;100244.79;1790507;80;20943;-84
2022/08/14 08:40:56;;;;;;;12.23;7.03;;;;;;;35.94;26.16;100245.64;1789841;80;20927;-85
2022/08/14 08:43:26;;;;;;;11.68;6.53;;;;;;;35.90;26.03;100238.52;1790255;80;21129;-85
2022/08/14 08:45:56;;;;;;;12.70;6.62;;;;;;;35.79;26.23;100228.13;1790294;80;20900;-86
2022/08/14 08:48:27;;;;;;;13.18;6.62;;;;;;;35.77;26.43;100225.39;1786483;80;21425;-85
2022/08/14 08:50:53;;;;;;;9.88;6.25;;;;;;;35.91;26.82;100233.36;1784551;80;20983;-85
2022/08/14 08:53:19;;;;;;;8.05;6.15;;;;;;;36.04;26.39;100231.47;1784738;80;20975;-83
2022/08/14 08:55:46;;;;;;;12.53;6.75;;;;;;;36.15;26.25;100220.56;1784849;80;21703;-86
2022/08/14 08:58:17;;;;;;;7.03;5.47;;;;;;;36.27;25.81;100227.41;1784387;80;20924;-85
2022/08/14 09:00:51;;;;;;;13.03;5.40;;;;;;;36.42;26.09;100220.28;1784224;80;20904;-85
2022/08/14 09:03:20;;;;;;;9.63;5.30;;;;;;;36.55;26.16;100228.48;1783874;80;20928;-86
2022/08/14 09:05:53;;;;;;;9.08;5.30;;;;;;;36.66;26.07;100221.94;1783946;80;21078;-85
2022/08/14 09:08:26;;;;;;;11.00;5.20;;;;;;;36.75;25.39;100223.02;1784128;80;21323;-84
2022/08/14 09:10:54;;;;;;;10.95;4.75;;;;;;;36.74;25.30;100217.29;1783795;80;20963;-85
2022/08/14 09:13:24;;;;;;;15.15;5.60;;;;;;;36.84;25.10;100217.80;1784001;80;20931;-84
2022/08/14 09:15:49;;;;;;;10.98;5.90;;;;;;;36.80;25.28;100208.52;1782465;80;20963;-87
2022/08/14 09:18:18;;;;;;;8.95;4.75;;;;;;;36.82;25.00;100205.80;1783772;80;20845;-86
2022/08/14 09:20:50;;;;;;;7.17;4.25;;;;;;;36.87;24.97;100206.33;1783867;80;21170;-86
2022/08/14 09:23:17;;;;;;;11.00;4.28;;;;;;;36.90;25.27;100205.21;1783852;80;20915;-85
2022/08/14 09:25:46;;;;;;;6.40;3.45;;;;;;;36.97;25.68;100210.39;1784525;80;20892;-84
2022/08/14 09:28:15;;;;;;;6.97;3.67;;;;;;;36.99;25.57;100208.75;1783907;80;20983;-86
2022/08/14 09:30:54;;;;;;;5.67;3.45;;;;;;;37.00;25.92;100203.02;1783990;80;20951;-86
2022/08/14 09:34:07;;;;;;;7.53;3.77;;;;;;;37.05;26.26;100209.82;1784563;80;21909;-85
2022/08/14 09:37:16;;;;;;;8.55;3.62;;;;;;;37.00;26.15;100203.54;1783950;80;21064;-85
2022/08/14 09:40:21;;;;;;;15.25;3.80;;;;;;;37.05;26.80;100196.70;1783627;80;20967;-86
2022/08/14 09:43:43;;;;;;;7.65;3.70;;;;;;;37.28;25.89;100205.65;1753129;80;20908;-83
2022/08/14 09:46:12;;;;;;;8.95;4.45;;;;;;;37.38;26.20;100197.16;1783593;80;20837;-83
2022/08/14 09:48:38;;;;;;;12.20;3.98;;;;;;;37.60;26.10;100196.77;1777306;80;21773;-84
2022/08/14 09:51:06;;;;;;;7.17;4.40;;;;;;;37.68;25.54;100194.81;1778449;80;20841;-84
2022/08/14 09:53:46;;;;;;;11.53;4.10;;;;;;;37.69;25.41;100184.14;1775332;80;20952;-85
2022/08/14 09:56:12;;;;;;;6.50;3.35;;;;;;;37.64;25.42;100197.84;1753446;80;20920;-84
2022/08/14 09:58:43;;;;;;;10.13;3.52;;;;;;;37.63;25.43;100198.39;1775937;80;21370;-84
2022/08/14 10:01:13;;;;;;;11.03;4.03;;;;;;;37.58;25.16;100190.23;1775590;80;21254;-85
2022/08/14 10:03:59;;;;;;;9.00;3.52;;;;;;;37.57;25.59;100189.13;1775688;80;20896;-84
2022/08/14 10:06:25;;;;;;;4.87;3.50;;;;;;;37.48;25.37;100199.27;1774136;80;20892;-84
2022/08/14 10:09:00;;;;;;;10.75;5.75;;;;;;;37.34;25.37;100191.41;1775788;80;21331;-84
2022/08/14 10:11:30;;;;;;;5.70;4.05;;;;;;;37.22;26.04;100189.02;1775348;80;21410;-84
2022/08/14 10:13:58;;;;;;;4.42;3.62;;;;;;;37.17;26.43;100191.75;1775522;80;21131;-84
2022/08/14 10:16:29;;;;;;;6.75;4.58;;;;;;;37.08;26.16;100186.05;1775301;80;20971;-84
2022/08/14 10:19:08;;;;;;;16.75;3.98;;;;;;;37.11;26.26;100186.06;1775227;80;20908;-86
2022/08/14 10:21:40;;;;;;;7.97;3.85;;;;;;;37.30;25.35;100191.15;1775322;80;20965;-85
2022/08/14 10:24:24;;;;;;;16.57;3.87;;;;;;;37.49;25.71;100202.28;1775705;80;21025;-86
2022/08/14 10:26:56;;;;;;;14.60;4.37;;;;;;;37.62;25.14;100195.94;1774714;80;21163;-85
2022/08/14 10:29:37;;;;;;;9.63;4.50;;;;;;;37.70;24.43;100187.13;1775227;80;21101;-86
2022/08/14 10:32:05;;;;;;;30.30;17.35;;;;;;;37.71;24.67;100193.70;1768710;80;20979;-85
2022/08/14 10:34:36;;;;;;;15.35;5.30;;;;;;;37.81;24.03;100205.68;1775554;80;21413;-83
2022/08/14 10:37:12;;;;;;;5.67;3.77;;;;;;;37.88;24.53;100192.48;1775394;80;20944;-85
2022/08/14 10:39:40;;;;;;;10.28;4.58;;;;;;;38.06;24.45;100199.22;1774591;80;21103;-85
2022/08/14 10:42:12;;;;;;;12.37;4.65;;;;;;;38.22;24.38;100193.91;1775725;80;20837;-84
2022/08/14 10:44:48;;;;;;;7.08;4.37;;;;;;;38.31;23.82;100196.81;1775877;80;20837;-85
2022/08/14 10:47:17;;;;;;;8.90;4.40;;;;;;;38.29;23.98;100197.13;1775521;80;20960;-85
2022/08/14 10:49:57;;;;;;;8.45;4.80;;;;;;;38.32;24.28;100197.91;1776048;80;21063;-85
2022/08/14 10:52:29;;;;;;;6.72;4.53;;;;;;;38.42;23.81;100198.91;1775840;80;21073;-85
2022/08/14 10:55:13;;;;;;;10.82;5.12;;;;;;;38.50;24.23;100207.36;1775506;80;20892;-85
2022/08/14 10:57:55;;;;;;;8.68;4.47;;;;;;;38.55;23.49;100207.33;1774918;80;20889;-86
2022/08/14 11:00:26;;;;;;;11.60;4.30;;;;;;;38.57;23.90;100202.91;1775141;80;21015;-85
2022/08/14 11:03:02;;;;;;;6.22;4.10;;;;;;;38.55;23.43;100194.16;1779474;80;20985;-85
2022/08/14 11:05:42;;;;;;;5.40;3.90;;;;;;;38.47;23.59;100207.92;1775641;80;21253;-85
2022/08/14 11:08:10;;;;;;;7.78;3.75;;;;;;;38.45;23.70;100197.80;1775790;80;21386;-86
2022/08/14 11:10:45;;;;;;;10.32;3.98;;;;;;;38.41;23.88;100191.81;1775841;80;20908;-88
2022/08/14 11:13:26;;;;;;;15.32;3.87;;;;;;;38.45;23.97;100192.31;1775694;80;20900;-85
2022/08/14 11:15:56;;;;;;;10.00;4.80;;;;;;;38.40;23.65;100195.11;1775638;80;20987;-85
2022/08/14 11:18:23;;;;;;;16.67;4.12;;;;;;;38.25;23.46;100192.51;1775734;80;21268;-86
2022/08/14 11:20:55;;;;;;;8.13;4.10;;;;;;;37.98;24.13;100188.88;1775841;80;20920;-85
2022/08/14 11:23:38;;;;;;;7.00;3.75;;;;;;;37.69;24.49;100182.22;1775281;80;21012;-86
2022/08/14 11:26:06;;;;;;;9.95;3.50;;;;;;;37.41;24.84;100187.00;1775568;80;20908;-86
2022/08/14 11:28:40;;;;;;;10.05;4.20;;;;;;;37.13;25.16;100180.58;1779160;80;20995;-85
2022/08/14 11:31:09;;;;;;;7.15;3.85;;;;;;;36.93;25.43;100181.44;1776237;80;21261;-84
2022/08/14 11:33:37;;;;;;;10.38;3.90;;;;;;;36.67;25.66;100176.59;1776624;80;20892;-84
2022/08/14 11:36:06;;;;;;;6.65;3.83;;;;;;;36.45;25.92;100169.22;1775741;80;20971;-85
2022/08/14 11:38:42;;;;;;;11.88;4.03;;;;;;;36.28;26.08;100165.41;1775334;80;20975;-85
2022/08/14 11:41:09;;;;;;;9.45;4.03;;;;;;;36.17;26.59;100159.68;1775611;80;21050;-85
2022/08/14 11:43:40;;;;;;;11.25;4.25;;;;;;;36.18;26.83;100174.98;1775381;80;21939;-85
2022/08/14 11:46:09;;;;;;;8.23;4.17;;;;;;;36.15;26.49;100158.58;1775501;80;20954;-85